sensor_id;sensor_type;location;lat;lon;timestamp;temperature;humidity
46652;DHT22;32377;52.182;5.398;2023-04-01T00:00:23;10.30;99.90
46652;DHT22;32377;52.182;5.398;2023-04-01T00:02:48;10.30;99.90
46652;DHT22;32377;52.182;5.398;2023-04-01T00:05:14;10.30;99.90
46652;DHT22;32377;52.182;5.398;2023-04-01T00:07:41;10.30;99.90
46652;DHT22;32377;52.182;5.398;2023-04-01T00:10:09;10.30;99.90
46652;DHT22;32377;52.182;5.398;2023-04-01T00:12:35;10.40;99.90
46652;DHT22;32377;52.182;5.398;2023-04-01T00:15:02;10.40;99.90
46652;DHT22;32377;52.182;5.398;2023-04-01T00:17:28;10.30;99.90
46652;DHT22;32377;52.182;5.398;2023-04-01T00:19:57;10.30;99.90
46652;DHT22;32377;52.182;5.398;2023-04-01T00:22:23;10.30;99.90
46652;DHT22;32377;52.182;5.398;2023-04-01T00:24:49;10.30;99.90
46652;DHT22;32377;52.182;5.398;2023-04-01T00:27:16;10.30;99.90
46652;DHT22;32377;52.182;5.398;2023-04-01T00:29:42;10.30;99.90
46652;DHT22;32377;52.182;5.398;2023-04-01T00:32:08;10.20;99.90
46652;DHT22;32377;52.182;5.398;2023-04-01T00:34:34;10.20;99.90
46652;DHT22;32377;52.182;5.398;2023-04-01T00:36:59;10.20;99.90
46652;DHT22;32377;52.182;5.398;2023-04-01T00:39:29;10.20;99.90
46652;DHT22;32377;52.182;5.398;2023-04-01T00:41:54;10.20;99.90
46652;DHT22;32377;52.182;5.398;2023-04-01T00:44:28;10.20;99.90
46652;DHT22;32377;52.182;5.398;2023-04-01T00:46:55;10.20;99.90
46652;DHT22;32377;52.182;5.398;2023-04-01T00:49:24;10.20;99.90
46652;DHT22;32377;52.182;5.398;2023-04-01T00:51:54;10.20;99.90
46652;DHT22;32377;52.182;5.398;2023-04-01T00:54:22;10.20;99.90
46652;DHT22;32377;52.182;5.398;2023-04-01T00:57:11;10.20;99.90
46652;DHT22;32377;52.182;5.398;2023-04-01T00:59:44;10.10;99.90
46652;DHT22;32377;52.182;5.398;2023-04-01T01:02:12;10.10;99.90
46652;DHT22;32377;52.182;5.398;2023-04-01T01:04:38;10.10;99.90
46652;DHT22;32377;52.182;5.398;2023-04-01T01:15:26;10.10;99.90
46652;DHT22;32377;52.182;5.398;2023-04-01T01:18:14;10.00;99.90
46652;DHT22;32377;52.182;5.398;2023-04-01T01:26:44;10.00;99.90
46652;DHT22;32377;52.182;5.398;2023-04-01T01:29:29;10.00;99.90
46652;DHT22;32377;52.182;5.398;2023-04-01T01:32:19;10.00;99.90
46652;DHT22;32377;52.182;5.398;2023-04-01T01:37:33;10.00;99.90
46652;DHT22;32377;52.182;5.398;2023-04-01T01:40:02;9.90;99.90
46652;DHT22;32377;52.182;5.398;2023-04-01T01:42:29;9.90;99.90
46652;DHT22;32377;52.182;5.398;2023-04-01T01:44:57;9.90;99.90
46652;DHT22;32377;52.182;5.398;2023-04-01T01:47:25;9.90;99.90
46652;DHT22;32377;52.182;5.398;2023-04-01T01:49:53;9.90;99.90
46652;DHT22;32377;52.182;5.398;2023-04-01T01:52:21;9.90;99.90
46652;DHT22;32377;52.182;5.398;2023-04-01T01:54:49;9.80;99.90
46652;DHT22;32377;52.182;5.398;2023-04-01T01:57:15;9.80;99.90
46652;DHT22;32377;52.182;5.398;2023-04-01T01:59:42;9.80;99.90
46652;DHT22;32377;52.182;5.398;2023-04-01T02:02:10;9.80;99.90
46652;DHT22;32377;52.182;5.398;2023-04-01T02:04:39;9.80;99.90
46652;DHT22;32377;52.182;5.398;2023-04-01T02:07:10;9.80;99.90
46652;DHT22;32377;52.182;5.398;2023-04-01T02:09:37;9.80;99.90
46652;DHT22;32377;52.182;5.398;2023-04-01T02:12:09;9.80;99.90
46652;DHT22;32377;52.182;5.398;2023-04-01T02:14:41;9.70;99.90
46652;DHT22;32377;52.182;5.398;2023-04-01T02:17:20;9.70;99.90
46652;DHT22;32377;52.182;5.398;2023-04-01T02:19:50;9.70;99.90
46652;DHT22;32377;52.182;5.398;2023-04-01T02:22:29;9.70;99.90
46652;DHT22;32377;52.182;5.398;2023-04-01T02:25:07;9.70;99.90
46652;DHT22;32377;52.182;5.398;2023-04-01T02:27:33;9.70;99.90
46652;DHT22;32377;52.182;5.398;2023-04-01T02:29:59;9.70;99.90
46652;DHT22;32377;52.182;5.398;2023-04-01T02:32:25;9.70;99.90
46652;DHT22;32377;52.182;5.398;2023-04-01T02:34:52;9.70;99.90
46652;DHT22;32377;52.182;5.398;2023-04-01T02:37:18;9.70;99.90
46652;DHT22;32377;52.182;5.398;2023-04-01T02:39:44;9.70;99.90
46652;DHT22;32377;52.182;5.398;2023-04-01T02:42:10;9.70;99.90
46652;DHT22;32377;52.182;5.398;2023-04-01T02:44:35;9.70;99.90
46652;DHT22;32377;52.182;5.398;2023-04-01T02:47:01;9.70;99.90
46652;DHT22;32377;52.182;5.398;2023-04-01T02:49:27;9.70;99.90
46652;DHT22;32377;52.182;5.398;2023-04-01T02:51:52;9.70;99.90
46652;DHT22;32377;52.182;5.398;2023-04-01T02:54:21;9.70;99.90
46652;DHT22;32377;52.182;5.398;2023-04-01T02:56:46;9.70;99.90
46652;DHT22;32377;52.182;5.398;2023-04-01T02:59:12;9.70;99.90
46652;DHT22;32377;52.182;5.398;2023-04-01T03:01:38;9.70;99.90
46652;DHT22;32377;52.182;5.398;2023-04-01T03:04:04;9.60;99.90
46652;DHT22;32377;52.182;5.398;2023-04-01T03:06:29;9.70;99.90
46652;DHT22;32377;52.182;5.398;2023-04-01T03:08:55;9.70;99.90
46652;DHT22;32377;52.182;5.398;2023-04-01T03:11:21;9.70;99.90
46652;DHT22;32377;52.182;5.398;2023-04-01T03:13:46;9.60;99.90
46652;DHT22;32377;52.182;5.398;2023-04-01T03:16:12;9.60;99.90
46652;DHT22;32377;52.182;5.398;2023-04-01T03:18:38;9.70;99.90
46652;DHT22;32377;52.182;5.398;2023-04-01T03:21:18;9.70;99.90
46652;DHT22;32377;52.182;5.398;2023-04-01T03:23:44;9.70;99.90
46652;DHT22;32377;52.182;5.398;2023-04-01T03:26:09;9.60;99.90
46652;DHT22;32377;52.182;5.398;2023-04-01T03:28:35;9.70;99.90
46652;DHT22;32377;52.182;5.398;2023-04-01T03:31:01;9.70;99.90
46652;DHT22;32377;52.182;5.398;2023-04-01T03:33:26;9.70;99.90
46652;DHT22;32377;52.182;5.398;2023-04-01T03:35:52;9.70;99.90
46652;DHT22;32377;52.182;5.398;2023-04-01T03:38:18;9.70;99.90
46652;DHT22;32377;52.182;5.398;2023-04-01T03:40:44;9.70;99.90
46652;DHT22;32377;52.182;5.398;2023-04-01T03:43:10;9.70;99.90
46652;DHT22;32377;52.182;5.398;2023-04-01T03:45:46;9.70;99.90
46652;DHT22;32377;52.182;5.398;2023-04-01T03:48:15;9.70;99.90
46652;DHT22;32377;52.182;5.398;2023-04-01T03:50:42;9.70;99.90
46652;DHT22;32377;52.182;5.398;2023-04-01T03:53:09;9.70;99.90
46652;DHT22;32377;52.182;5.398;2023-04-01T03:55:36;9.60;99.90
46652;DHT22;32377;52.182;5.398;2023-04-01T03:59:13;9.70;99.90
46652;DHT22;32377;52.182;5.398;2023-04-01T04:01:39;9.70;99.90
46652;DHT22;32377;52.182;5.398;2023-04-01T04:04:05;9.60;99.90
46652;DHT22;32377;52.182;5.398;2023-04-01T04:06:32;9.70;99.90
46652;DHT22;32377;52.182;5.398;2023-04-01T04:08:57;9.70;99.90
46652;DHT22;32377;52.182;5.398;2023-04-01T04:11:23;9.70;99.90
46652;DHT22;32377;52.182;5.398;2023-04-01T04:13:49;9.70;99.90
46652;DHT22;32377;52.182;5.398;2023-04-01T04:16:16;9.70;99.90
46652;DHT22;32377;52.182;5.398;2023-04-01T04:18:42;9.70;99.90
46652;DHT22;32377;52.182;5.398;2023-04-01T04:21:14;9.70;99.90
46652;DHT22;32377;52.182;5.398;2023-04-01T04:23:41;9.70;99.90
46652;DHT22;32377;52.182;5.398;2023-04-01T04:26:10;9.70;99.90
46652;DHT22;32377;52.182;5.398;2023-04-01T04:28:35;9.70;99.90
46652;DHT22;32377;52.182;5.398;2023-04-01T04:31:02;9.70;99.90
46652;DHT22;32377;52.182;5.398;2023-04-01T04:33:28;9.70;99.90
46652;DHT22;32377;52.182;5.398;2023-04-01T04:35:56;9.70;99.90
46652;DHT22;32377;52.182;5.398;2023-04-01T04:38:22;9.80;99.90
46652;DHT22;32377;52.182;5.398;2023-04-01T04:40:48;9.80;99.90
46652;DHT22;32377;52.182;5.398;2023-04-01T04:43:15;9.80;99.90
46652;DHT22;32377;52.182;5.398;2023-04-01T04:45:41;9.80;99.90
46652;DHT22;32377;52.182;5.398;2023-04-01T04:48:11;9.80;99.90
46652;DHT22;32377;52.182;5.398;2023-04-01T04:50:42;9.90;99.90
46652;DHT22;32377;52.182;5.398;2023-04-01T04:53:15;10.00;99.90
46652;DHT22;32377;52.182;5.398;2023-04-01T04:55:48;10.00;99.90
46652;DHT22;32377;52.182;5.398;2023-04-01T04:58:17;10.00;99.90
46652;DHT22;32377;52.182;5.398;2023-04-01T05:00:43;10.00;99.90
46652;DHT22;32377;52.182;5.398;2023-04-01T05:03:09;10.00;99.90
46652;DHT22;32377;52.182;5.398;2023-04-01T05:05:35;10.00;99.90
46652;DHT22;32377;52.182;5.398;2023-04-01T05:08:01;10.00;99.90
46652;DHT22;32377;52.182;5.398;2023-04-01T05:10:27;10.00;99.90
46652;DHT22;32377;52.182;5.398;2023-04-01T05:12:55;10.00;99.90
46652;DHT22;32377;52.182;5.398;2023-04-01T05:15:21;10.10;99.90
46652;DHT22;32377;52.182;5.398;2023-04-01T05:17:47;10.10;99.90
46652;DHT22;32377;52.182;5.398;2023-04-01T05:20:13;10.10;99.90
46652;DHT22;32377;52.182;5.398;2023-04-01T05:22:39;10.10;99.90
46652;DHT22;32377;52.182;5.398;2023-04-01T05:25:05;10.10;99.90
46652;DHT22;32377;52.182;5.398;2023-04-01T05:27:31;10.10;99.90
46652;DHT22;32377;52.182;5.398;2023-04-01T05:29:57;10.00;99.90
46652;DHT22;32377;52.182;5.398;2023-04-01T05:32:23;10.10;99.90
46652;DHT22;32377;52.182;5.398;2023-04-01T05:34:52;10.10;99.90
46652;DHT22;32377;52.182;5.398;2023-04-01T05:37:17;10.00;99.90
46652;DHT22;32377;52.182;5.398;2023-04-01T05:39:43;10.00;99.90
46652;DHT22;32377;52.182;5.398;2023-04-01T05:42:09;10.10;99.90
46652;DHT22;32377;52.182;5.398;2023-04-01T05:44:35;10.00;99.90
46652;DHT22;32377;52.182;5.398;2023-04-01T05:47:02;10.00;99.90
46652;DHT22;32377;52.182;5.398;2023-04-01T05:49:28;10.00;99.90
46652;DHT22;32377;52.182;5.398;2023-04-01T05:51:54;10.00;99.90
46652;DHT22;32377;52.182;5.398;2023-04-01T05:54:19;10.10;99.90
46652;DHT22;32377;52.182;5.398;2023-04-01T05:56:45;10.10;99.90
46652;DHT22;32377;52.182;5.398;2023-04-01T05:59:11;10.00;99.90
46652;DHT22;32377;52.182;5.398;2023-04-01T06:01:37;10.00;99.90
46652;DHT22;32377;52.182;5.398;2023-04-01T06:04:03;10.10;99.90
46652;DHT22;32377;52.182;5.398;2023-04-01T06:06:31;10.10;99.90
46652;DHT22;32377;52.182;5.398;2023-04-01T06:09:17;10.10;99.90
46652;DHT22;32377;52.182;5.398;2023-04-01T06:15:16;10.10;99.90
46652;DHT22;32377;52.182;5.398;2023-04-01T06:17:56;10.10;99.90
46652;DHT22;32377;52.182;5.398;2023-04-01T06:20:51;10.10;99.90
46652;DHT22;32377;52.182;5.398;2023-04-01T06:23:33;10.10;99.90
46652;DHT22;32377;52.182;5.398;2023-04-01T06:29:15;10.10;99.90
46652;DHT22;32377;52.182;5.398;2023-04-01T06:34:32;10.10;99.90
46652;DHT22;32377;52.182;5.398;2023-04-01T06:39:52;10.10;99.90
46652;DHT22;32377;52.182;5.398;2023-04-01T06:42:38;10.20;99.90
46652;DHT22;32377;52.182;5.398;2023-04-01T06:45:16;10.20;99.90
46652;DHT22;32377;52.182;5.398;2023-04-01T06:55:57;10.10;99.90
46652;DHT22;32377;52.182;5.398;2023-04-01T06:58:29;10.10;99.90
46652;DHT22;32377;52.182;5.398;2023-04-01T07:01:02;10.10;99.90
46652;DHT22;32377;52.182;5.398;2023-04-01T07:03:38;10.10;99.90
46652;DHT22;32377;52.182;5.398;2023-04-01T07:06:23;10.10;99.90
46652;DHT22;32377;52.182;5.398;2023-04-01T07:08:53;10.10;99.90
46652;DHT22;32377;52.182;5.398;2023-04-01T07:11:31;10.20;99.90
46652;DHT22;32377;52.182;5.398;2023-04-01T07:14:19;10.20;99.90
46652;DHT22;32377;52.182;5.398;2023-04-01T07:16:54;10.20;99.90
46652;DHT22;32377;52.182;5.398;2023-04-01T07:22:48;10.30;99.90
46652;DHT22;32377;52.182;5.398;2023-04-01T07:25:27;10.30;99.90
46652;DHT22;32377;52.182;5.398;2023-04-01T07:28:02;10.30;99.90
46652;DHT22;32377;52.182;5.398;2023-04-01T07:30:40;10.30;99.90
46652;DHT22;32377;52.182;5.398;2023-04-01T07:33:16;10.30;99.90
46652;DHT22;32377;52.182;5.398;2023-04-01T07:36:03;10.30;99.90
46652;DHT22;32377;52.182;5.398;2023-04-01T07:43:42;10.30;99.90
46652;DHT22;32377;52.182;5.398;2023-04-01T07:48:54;10.40;99.90
46652;DHT22;32377;52.182;5.398;2023-04-01T07:51:28;10.40;99.90
46652;DHT22;32377;52.182;5.398;2023-04-01T07:54:07;10.40;99.90
46652;DHT22;32377;52.182;5.398;2023-04-01T07:56:55;10.30;99.90
46652;DHT22;32377;52.182;5.398;2023-04-01T07:59:45;10.40;99.90
46652;DHT22;32377;52.182;5.398;2023-04-01T08:02:39;10.30;99.90
46652;DHT22;32377;52.182;5.398;2023-04-01T08:05:25;10.30;99.90
46652;DHT22;32377;52.182;5.398;2023-04-01T08:08:14;10.30;99.90
46652;DHT22;32377;52.182;5.398;2023-04-01T08:10:53;10.40;99.90
46652;DHT22;32377;52.182;5.398;2023-04-01T08:13:28;10.40;99.90
46652;DHT22;32377;52.182;5.398;2023-04-01T08:21:28;10.40;99.90
46652;DHT22;32377;52.182;5.398;2023-04-01T08:23:58;10.40;99.90
46652;DHT22;32377;52.182;5.398;2023-04-01T08:26:30;10.40;99.90
46652;DHT22;32377;52.182;5.398;2023-04-01T08:29:18;10.40;99.90
46652;DHT22;32377;52.182;5.398;2023-04-01T08:32:10;10.40;99.90
46652;DHT22;32377;52.182;5.398;2023-04-01T08:34:41;10.40;99.90
46652;DHT22;32377;52.182;5.398;2023-04-01T08:37:12;10.50;99.90
46652;DHT22;32377;52.182;5.398;2023-04-01T08:39:54;10.50;99.90
46652;DHT22;32377;52.182;5.398;2023-04-01T08:42:48;10.50;99.90
46652;DHT22;32377;52.182;5.398;2023-04-01T08:45:23;10.50;99.90
46652;DHT22;32377;52.182;5.398;2023-04-01T08:53:29;10.50;99.90
46652;DHT22;32377;52.182;5.398;2023-04-01T08:58:37;10.50;99.90
46652;DHT22;32377;52.182;5.398;2023-04-01T09:12:35;10.60;99.90
46652;DHT22;32377;52.182;5.398;2023-04-01T09:15:16;10.70;99.90
46652;DHT22;32377;52.182;5.398;2023-04-01T09:34:25;10.80;99.90
46652;DHT22;32377;52.182;5.398;2023-04-01T09:40:16;11.00;99.90
46652;DHT22;32377;52.182;5.398;2023-04-01T09:42:49;11.10;99.90
46652;DHT22;32377;52.182;5.398;2023-04-01T10:25:18;11.50;99.90
46652;DHT22;32377;52.182;5.398;2023-04-01T10:53:18;11.60;99.90
46652;DHT22;32377;52.182;5.398;2023-04-01T10:56:19;11.80;99.90
46652;DHT22;32377;52.182;5.398;2023-04-01T10:59:01;11.80;99.90
46652;DHT22;32377;52.182;5.398;2023-04-01T11:01:54;11.90;99.90
46652;DHT22;32377;52.182;5.398;2023-04-01T11:21:53;11.80;99.90
46652;DHT22;32377;52.182;5.398;2023-04-01T11:24:38;11.90;99.90
46652;DHT22;32377;52.182;5.398;2023-04-01T11:29:51;11.80;99.90
46652;DHT22;32377;52.182;5.398;2023-04-01T11:38:04;11.70;99.90
46652;DHT22;32377;52.182;5.398;2023-04-01T11:44:09;11.40;99.90
46652;DHT22;32377;52.182;5.398;2023-04-01T11:53:00;11.30;99.90
46652;DHT22;32377;52.182;5.398;2023-04-01T11:56:00;11.30;99.90
46652;DHT22;32377;52.182;5.398;2023-04-01T12:07:19;11.50;99.90
46652;DHT22;32377;52.182;5.398;2023-04-01T12:09:56;11.50;99.90
46652;DHT22;32377;52.182;5.398;2023-04-01T12:15:27;11.50;99.90
46652;DHT22;32377;52.182;5.398;2023-04-01T12:26:43;11.40;99.90
46652;DHT22;32377;52.182;5.398;2023-04-01T12:29:18;11.40;99.90
46652;DHT22;32377;52.182;5.398;2023-04-01T12:37:18;11.40;99.90
46652;DHT22;32377;52.182;5.398;2023-04-01T12:46:26;11.40;99.90
46652;DHT22;32377;52.182;5.398;2023-04-01T12:49:23;11.40;99.90
46652;DHT22;32377;52.182;5.398;2023-04-01T12:57:46;11.40;99.90
46652;DHT22;32377;52.182;5.398;2023-04-01T13:03:26;11.50;99.90
46652;DHT22;32377;52.182;5.398;2023-04-01T13:11:25;11.40;99.90
46652;DHT22;32377;52.182;5.398;2023-04-01T13:20:06;11.40;99.90
46652;DHT22;32377;52.182;5.398;2023-04-01T13:28:59;11.30;99.90
46652;DHT22;32377;52.182;5.398;2023-04-01T13:41:59;11.10;99.90
46652;DHT22;32377;52.182;5.398;2023-04-01T13:44:46;11.10;99.90
46652;DHT22;32377;52.182;5.398;2023-04-01T13:47:43;11.20;99.90
46652;DHT22;32377;52.182;5.398;2023-04-01T13:50:45;11.10;99.90
46652;DHT22;32377;52.182;5.398;2023-04-01T13:59:03;11.40;99.90
46652;DHT22;32377;52.182;5.398;2023-04-01T14:02:28;11.40;99.90
46652;DHT22;32377;52.182;5.398;2023-04-01T14:12:30;11.30;99.90
46652;DHT22;32377;52.182;5.398;2023-04-01T14:24:32;11.10;99.90
46652;DHT22;32377;52.182;5.398;2023-04-01T14:44:45;10.90;99.90
46652;DHT22;32377;52.182;5.398;2023-04-01T14:47:39;10.90;99.90
46652;DHT22;32377;52.182;5.398;2023-04-01T14:50:22;10.90;99.90
46652;DHT22;32377;52.182;5.398;2023-04-01T14:55:34;10.80;99.90
46652;DHT22;32377;52.182;5.398;2023-04-01T14:58:14;10.80;99.90
46652;DHT22;32377;52.182;5.398;2023-04-01T15:01:01;10.90;99.90
46652;DHT22;32377;52.182;5.398;2023-04-01T15:09:22;10.80;99.90
46652;DHT22;32377;52.182;5.398;2023-04-01T15:12:26;10.80;99.90
46652;DHT22;32377;52.182;5.398;2023-04-01T15:18:08;10.80;99.90
46652;DHT22;32377;52.182;5.398;2023-04-01T15:20:50;10.70;99.90
46652;DHT22;32377;52.182;5.398;2023-04-01T15:24:40;10.80;99.90
46652;DHT22;32377;52.182;5.398;2023-04-01T15:29:43;10.70;99.90
46652;DHT22;32377;52.182;5.398;2023-04-01T15:32:25;10.70;99.90
46652;DHT22;32377;52.182;5.398;2023-04-01T15:40:42;10.60;99.90
46652;DHT22;32377;52.182;5.398;2023-04-01T15:43:15;10.50;99.90
46652;DHT22;32377;52.182;5.398;2023-04-01T16:02:23;10.30;99.90
46652;DHT22;32377;52.182;5.398;2023-04-01T16:07:57;10.40;99.90
46652;DHT22;32377;52.182;5.398;2023-04-01T16:16:22;10.40;99.90
46652;DHT22;32377;52.182;5.398;2023-04-01T16:18:56;10.30;99.90
46652;DHT22;32377;52.182;5.398;2023-04-01T16:21:27;10.30;99.90
46652;DHT22;32377;52.182;5.398;2023-04-01T16:24:17;10.30;99.90
46652;DHT22;32377;52.182;5.398;2023-04-01T16:27:33;10.20;99.90
46652;DHT22;32377;52.182;5.398;2023-04-01T16:30:16;10.20;99.90
46652;DHT22;32377;52.182;5.398;2023-04-01T16:32:51;10.10;99.90
46652;DHT22;32377;52.182;5.398;2023-04-01T16:35:40;10.10;99.90
46652;DHT22;32377;52.182;5.398;2023-04-01T16:38:21;10.10;99.90
46652;DHT22;32377;52.182;5.398;2023-04-01T16:43:35;9.90;99.90
46652;DHT22;32377;52.182;5.398;2023-04-01T16:51:18;9.80;99.90
46652;DHT22;32377;52.182;5.398;2023-04-01T16:56:47;9.70;99.90
46652;DHT22;32377;52.182;5.398;2023-04-01T16:59:19;9.70;99.90
46652;DHT22;32377;52.182;5.398;2023-04-01T17:01:57;9.70;99.90
46652;DHT22;32377;52.182;5.398;2023-04-01T17:13:12;9.70;99.90
46652;DHT22;32377;52.182;5.398;2023-04-01T17:21:07;9.60;99.90
46652;DHT22;32377;52.182;5.398;2023-04-01T17:30:02;9.40;99.90
46652;DHT22;32377;52.182;5.398;2023-04-01T17:38:16;9.40;99.90
46652;DHT22;32377;52.182;5.398;2023-04-01T17:41:20;9.40;99.90
46652;DHT22;32377;52.182;5.398;2023-04-01T17:43:52;9.40;99.90
46652;DHT22;32377;52.182;5.398;2023-04-01T17:51:51;9.30;99.90
46652;DHT22;32377;52.182;5.398;2023-04-01T18:06:13;9.20;99.90
46652;DHT22;32377;52.182;5.398;2023-04-01T18:11:59;9.20;99.90
46652;DHT22;32377;52.182;5.398;2023-04-01T18:17:32;9.10;99.90
46652;DHT22;32377;52.182;5.398;2023-04-01T18:20:22;9.10;99.90
46652;DHT22;32377;52.182;5.398;2023-04-01T18:23:34;9.10;99.90
46652;DHT22;32377;52.182;5.398;2023-04-01T18:25:53;9.10;99.90
46652;DHT22;32377;52.182;5.398;2023-04-01T18:30:57;9.00;99.90
46652;DHT22;32377;52.182;5.398;2023-04-01T18:33:42;9.10;99.90
46652;DHT22;32377;52.182;5.398;2023-04-01T18:36:14;9.10;99.90
46652;DHT22;32377;52.182;5.398;2023-04-01T18:38:49;9.10;99.90
46652;DHT22;32377;52.182;5.398;2023-04-01T18:42:22;9.10;99.90
46652;DHT22;32377;52.182;5.398;2023-04-01T18:44:47;9.10;99.90
46652;DHT22;32377;52.182;5.398;2023-04-01T18:49:59;9.10;99.90
46652;DHT22;32377;52.182;5.398;2023-04-01T18:52:39;9.10;99.90
46652;DHT22;32377;52.182;5.398;2023-04-01T18:57:50;9.00;99.90
46652;DHT22;32377;52.182;5.398;2023-04-01T19:00:25;9.00;99.90
46652;DHT22;32377;52.182;5.398;2023-04-01T19:03:32;9.00;99.90
46652;DHT22;32377;52.182;5.398;2023-04-01T19:06:08;9.00;99.90
46652;DHT22;32377;52.182;5.398;2023-04-01T19:08:35;9.00;99.90
46652;DHT22;32377;52.182;5.398;2023-04-01T19:11:25;9.00;99.90
46652;DHT22;32377;52.182;5.398;2023-04-01T19:14:16;9.00;99.90
46652;DHT22;32377;52.182;5.398;2023-04-01T19:16:54;8.90;99.90
46652;DHT22;32377;52.182;5.398;2023-04-01T19:19:56;8.90;99.90
46652;DHT22;32377;52.182;5.398;2023-04-01T19:25:22;8.90;99.90
46652;DHT22;32377;52.182;5.398;2023-04-01T19:27:53;8.80;99.90
46652;DHT22;32377;52.182;5.398;2023-04-01T19:30:53;8.70;99.90
46652;DHT22;32377;52.182;5.398;2023-04-01T19:38:50;8.50;99.90
46652;DHT22;32377;52.182;5.398;2023-04-01T19:47:05;8.50;99.90
46652;DHT22;32377;52.182;5.398;2023-04-01T19:50:22;8.50;99.90
46652;DHT22;32377;52.182;5.398;2023-04-01T19:52:54;8.40;99.90
46652;DHT22;32377;52.182;5.398;2023-04-01T20:00:48;8.40;99.90
46652;DHT22;32377;52.182;5.398;2023-04-01T20:03:34;8.30;99.90
46652;DHT22;32377;52.182;5.398;2023-04-01T20:09:11;8.30;99.90
46652;DHT22;32377;52.182;5.398;2023-04-01T20:12:04;8.20;99.90
46652;DHT22;32377;52.182;5.398;2023-04-01T20:17:23;8.20;99.90
46652;DHT22;32377;52.182;5.398;2023-04-01T20:20:03;8.10;99.90
46652;DHT22;32377;52.182;5.398;2023-04-01T20:25:24;8.10;99.90
46652;DHT22;32377;52.182;5.398;2023-04-01T20:31:04;8.10;99.90
46652;DHT22;32377;52.182;5.398;2023-04-01T20:50:56;7.90;99.90
46652;DHT22;32377;52.182;5.398;2023-04-01T20:59:16;7.80;99.90
46652;DHT22;32377;52.182;5.398;2023-04-01T21:02:07;7.80;99.90
46652;DHT22;32377;52.182;5.398;2023-04-01T21:16:14;7.50;99.90
46652;DHT22;32377;52.182;5.398;2023-04-01T21:24:48;7.60;99.90
46652;DHT22;32377;52.182;5.398;2023-04-01T21:27:29;7.50;99.90
46652;DHT22;32377;52.182;5.398;2023-04-01T21:39:01;7.50;99.90
46652;DHT22;32377;52.182;5.398;2023-04-01T21:45:03;7.40;99.90
46652;DHT22;32377;52.182;5.398;2023-04-01T21:47:58;7.40;99.90
46652;DHT22;32377;52.182;5.398;2023-04-01T21:51:20;7.40;99.90
46652;DHT22;32377;52.182;5.398;2023-04-01T22:06:47;7.30;99.90
46652;DHT22;32377;52.182;5.398;2023-04-01T22:12:41;7.20;99.90
46652;DHT22;32377;52.182;5.398;2023-04-01T22:17:59;7.20;99.90
46652;DHT22;32377;52.182;5.398;2023-04-01T22:20:33;7.20;99.90
46652;DHT22;32377;52.182;5.398;2023-04-01T22:31:03;7.10;99.90
46652;DHT22;32377;52.182;5.398;2023-04-01T22:39:13;7.00;99.90
46652;DHT22;32377;52.182;5.398;2023-04-01T22:44:23;7.00;99.90
46652;DHT22;32377;52.182;5.398;2023-04-01T22:46:56;7.00;99.90
46652;DHT22;32377;52.182;5.398;2023-04-01T22:49:32;7.00;99.90
46652;DHT22;32377;52.182;5.398;2023-04-01T22:54:41;6.90;99.90
46652;DHT22;32377;52.182;5.398;2023-04-01T22:57:19;6.90;99.90
46652;DHT22;32377;52.182;5.398;2023-04-01T22:59:52;6.90;99.90
46652;DHT22;32377;52.182;5.398;2023-04-01T23:02:28;6.80;99.90
46652;DHT22;32377;52.182;5.398;2023-04-01T23:05:00;6.80;99.90
46652;DHT22;32377;52.182;5.398;2023-04-01T23:10:28;6.80;99.90
46652;DHT22;32377;52.182;5.398;2023-04-01T23:12:58;6.80;99.90
46652;DHT22;32377;52.182;5.398;2023-04-01T23:15:26;6.80;99.90
46652;DHT22;32377;52.182;5.398;2023-04-01T23:20:23;6.80;99.90
46652;DHT22;32377;52.182;5.398;2023-04-01T23:22:57;6.70;99.90
46652;DHT22;32377;52.182;5.398;2023-04-01T23:25:39;6.80;99.90
46652;DHT22;32377;52.182;5.398;2023-04-01T23:36:32;6.70;99.90
46652;DHT22;32377;52.182;5.398;2023-04-01T23:38:38;6.70;99.90
46652;DHT22;32377;52.182;5.398;2023-04-01T23:41:09;6.80;99.90
46652;DHT22;32377;52.182;5.398;2023-04-01T23:43:43;6.70;99.90
46652;DHT22;32377;52.182;5.398;2023-04-01T23:46:11;6.70;99.90
46652;DHT22;32377;52.182;5.398;2023-04-01T23:48:40;6.70;99.90
46652;DHT22;32377;52.182;5.398;2023-04-01T23:51:28;6.60;99.90
46652;DHT22;32377;52.182;5.398;2023-04-01T23:54:11;6.60;99.90
46652;DHT22;32377;52.182;5.398;2023-04-01T23:56:41;6.60;99.90
46652;DHT22;32377;52.182;5.398;2023-04-01T23:59:19;6.70;99.90
